Time;durP1;ratioP1;P1;durP2;ratioP2;P2;SDS_P1;SDS_P2;PMS_P1;PMS_P2;Temp;Humidity;BMP_temperature;BMP_pressure;BME280_temperature;BME280_humidity;BME280_pressure;Samples;Min_cycle;Max_cycle;Signal;HPM_P1;HPM_P2
2022/09/03 00:01:50;;;;;;;2.45;0.95;;;;;;;16.74;70.97;101477.53;5008799;28;20525;-75
2022/09/03 00:04:28;;;;;;;2.38;1.17;;;;;;;16.72;70.91;101471.34;5021225;28;20060;-75
2022/09/03 00:07:05;;;;;;;4.15;1.10;;;;;;;16.71;71.07;101474.91;5021909;28;20057;-75
2022/09/03 00:09:41;;;;;;;1.50;0.85;;;;;;;16.70;71.22;101481.13;5006706;28;20521;-75
2022/09/03 00:12:20;;;;;;;3.80;1.10;;;;;;;16.69;70.98;101484.69;5010599;28;20048;-76
2022/09/03 00:14:56;;;;;;;3.22;0.80;;;;;;;16.69;71.20;101473.16;4990955;28;20045;-74
2022/09/03 00:17:31;;;;;;;0.98;0.90;;;;;;;16.68;71.27;101477.59;5005636;28;20258;-75
2022/09/03 00:20:06;;;;;;;2.00;1.23;;;;;;;16.67;70.67;101473.19;5015839;28;20537;-75
2022/09/03 00:22:40;;;;;;;1.17;1.00;;;;;;;16.66;71.08;101468.75;4997566;28;20054;-75
2022/09/03 00:25:13;;;;;;;5.05;1.20;;;;;;;16.65;70.80;101472.31;5007586;28;20579;-75
2022/09/03 00:27:49;;;;;;;2.40;1.20;;;;;;;16.64;71.34;101475.88;5011722;28;20401;-75
2022/09/03 00:30:18;;;;;;;4.45;1.27;;;;;;;16.62;70.95;101480.34;4989971;28;20264;-75
2022/09/03 00:33:05;;;;;;;2.03;1.05;;;;;;;16.62;71.00;101477.69;5006382;28;20056;-75
2022/09/03 00:35:40;;;;;;;3.42;1.00;;;;;;;16.59;71.19;101475.03;5007470;28;20029;-75
2022/09/03 00:38:08;;;;;;;1.83;0.93;;;;;;;16.57;71.21;101477.72;5019752;28;20294;-74
2022/09/03 00:40:44;;;;;;;2.92;0.88;;;;;;;16.58;70.79;101473.31;5024451;28;20382;-76
2022/09/03 00:43:31;;;;;;;3.13;1.02;;;;;;;16.57;71.08;101463.53;4993254;28;20282;-74
2022/09/03 00:46:18;;;;;;;0.80;0.80;;;;;;;16.56;71.50;101462.69;4980477;28;20044;-75
2022/09/03 00:49:25;;;;;;;4.03;0.90;;;;;;;16.55;72.06;101465.34;5023913;28;20045;-75
2022/09/03 00:52:03;;;;;;;1.30;0.93;;;;;;;16.54;71.66;101469.78;4991033;28;20490;-75
2022/09/03 00:54:48;;;;;;;1.02;0.90;;;;;;;16.52;71.68;101465.38;5019860;28;20037;-76
2022/09/03 00:57:29;;;;;;;1.13;1.02;;;;;;;16.52;72.04;101460.06;5013410;28;20768;-75
2022/09/03 01:00:05;;;;;;;2.33;1.20;;;;;;;16.51;72.22;101461.84;5001412;28;20538;-74
2022/09/03 01:02:51;;;;;;;2.67;1.27;;;;;;;16.49;73.51;101460.97;5024101;28;20049;-76
2022/09/03 01:05:29;;;;;;;3.83;1.00;;;;;;;16.49;72.81;101462.75;4987223;28;20286;-75
2022/09/03 01:08:14;;;;;;;1.90;1.05;;;;;;;16.49;73.13;101465.44;5010213;28;20041;-75
2022/09/03 01:10:45;;;;;;;4.75;0.88;;;;;;;16.48;72.99;101458.31;5023699;28;20391;-75
2022/09/03 01:13:21;;;;;;;1.10;0.82;;;;;;;16.49;73.44;101468.09;4993991;28;20052;-75
2022/09/03 01:16:11;;;;;;;5.47;1.23;;;;;;;16.47;73.22;101465.44;5016618;28;20053;-75
2022/09/03 01:19:05;;;;;;;1.63;1.00;;;;;;;16.45;73.85;101464.56;5012053;28;20052;-75
2022/09/03 01:21:40;;;;;;;2.97;1.10;;;;;;;16.43;73.76;101471.69;5005228;28;20046;-75
2022/09/03 01:24:57;;;;;;;3.70;1.55;;;;;;;16.42;74.32;101474.38;5000922;28;20349;-75
2022/09/03 01:27:47;;;;;;;2.38;0.98;;;;;;;16.39;74.70;101472.63;4924572;28;20054;-74
2022/09/03 01:30:21;;;;;;;1.98;1.40;;;;;;;16.36;74.46;101473.53;4917499;29;20062;-74
2022/09/03 01:33:24;;;;;;;4.90;0.98;;;;;;;16.33;74.49;101464.69;4965367;28;20483;-74
2022/09/03 01:36:23;;;;;;;2.30;1.23;;;;;;;16.30;74.87;101470.94;5001706;28;20037;-76
2022/09/03 01:39:19;;;;;;;1.25;0.95;;;;;;;16.26;75.03;101474.53;5021347;28;21107;-76
2022/09/03 01:42:15;;;;;;;1.65;1.00;;;;;;;16.26;74.91;101476.31;5016788;28;20049;-76
2022/09/03 01:45:21;;;;;;;1.02;1.02;;;;;;;16.23;75.17;101468.38;5014560;28;20447;-76
2022/09/03 01:48:09;;;;;;;3.08;1.20;;;;;;;16.20;75.27;101469.28;4987334;28;20537;-75
2022/09/03 01:50:41;;;;;;;1.80;1.00;;;;;;;16.20;74.85;101474.59;5014161;28;20054;-75
2022/09/03 01:53:18;;;;;;;1.40;0.98;;;;;;;16.18;75.28;101474.63;5004813;28;20037;-75
2022/09/03 01:56:18;;;;;;;4.63;1.25;;;;;;;16.17;75.27;101474.63;5004399;28;20048;-75
2022/09/03 01:58:56;;;;;;;4.10;1.25;;;;;;;16.15;75.72;101468.44;5020687;28;20056;-74
2022/09/03 02:01:31;;;;;;;1.35;1.00;;;;;;;16.12;76.16;101465.81;5013342;28;20273;-74
2022/09/03 02:04:01;;;;;;;1.83;1.05;;;;;;;16.12;75.95;101471.13;4968129;28;20049;-76
2022/09/03 02:06:33;;;;;;;1.75;1.20;;;;;;;16.10;76.20;101475.56;5008840;28;20049;-75
2022/09/03 02:09:01;;;;;;;3.08;1.10;;;;;;;16.09;75.96;101469.38;5007015;28;20121;-75
2022/09/03 02:11:29;;;;;;;2.60;1.17;;;;;;;16.07;76.33;101470.31;5001981;28;20069;-74
2022/09/03 02:13:59;;;;;;;1.42;1.15;;;;;;;16.04;76.69;101479.19;5020813;28;20053;-74
2022/09/03 02:16:32;;;;;;;2.85;1.23;;;;;;;16.01;76.72;101471.25;4997041;28;20037;-75
2022/09/03 02:19:04;;;;;;;2.92;1.30;;;;;;;16.00;76.86;101468.59;4975419;28;20037;-74
2022/09/03 02:21:37;;;;;;;1.27;1.17;;;;;;;15.96;76.52;101465.09;5007330;28;20041;-76
2022/09/03 02:24:08;;;;;;;2.67;1.20;;;;;;;15.94;76.91;101461.56;5002208;28;20525;-75
2022/09/03 02:26:36;;;;;;;2.78;1.20;;;;;;;15.92;76.55;101464.22;5013794;28;20045;-76
2022/09/03 02:29:04;;;;;;;1.73;0.80;;;;;;;15.90;76.80;101465.16;5001527;28;20517;-76
2022/09/03 02:31:33;;;;;;;2.25;1.00;;;;;;;15.88;76.22;101472.22;5001371;28;20052;-74
2022/09/03 02:34:01;;;;;;;3.38;1.17;;;;;;;15.87;76.38;101468.69;4976789;28;20502;-74
2022/09/03 02:36:34;;;;;;;1.90;1.20;;;;;;;15.83;77.08;101472.28;4987422;28;20414;-74
2022/09/03 02:39:03;;;;;;;3.03;1.15;;;;;;;15.82;76.98;101473.16;5018601;28;20053;-74
2022/09/03 02:41:32;;;;;;;3.30;1.02;;;;;;;15.81;76.64;101482.03;5021771;28;20049;-74
2022/09/03 02:44:33;;;;;;;3.08;1.25;;;;;;;15.79;76.98;101465.22;5001737;28;20033;-74
2022/09/03 02:47:07;;;;;;;2.63;1.25;;;;;;;15.74;77.06;101462.59;5005001;28;20056;-74
2022/09/03 02:49:35;;;;;;;2.30;1.27;;;;;;;15.72;76.86;101468.78;4999724;28;20052;-75
2022/09/03 02:52:11;;;;;;;3.25;1.20;;;;;;;15.71;77.30;101467.06;4985032;28;20053;-75
2022/09/03 02:54:40;;;;;;;1.10;1.10;;;;;;;15.67;77.89;101462.63;5022290;28;20569;-75
2022/09/03 02:57:10;;;;;;;2.70;1.20;;;;;;;15.64;77.76;101468.00;5017789;28;20167;-75
2022/09/03 02:59:40;;;;;;;1.98;1.20;;;;;;;15.62;77.69;101464.47;5016945;28;20056;-75
2022/09/03 03:02:10;;;;;;;4.32;1.42;;;;;;;15.60;77.73;101464.47;4995761;28;20655;-74
2022/09/03 03:04:39;;;;;;;2.72;1.20;;;;;;;15.56;78.43;101458.28;5013442;28;20052;-75
2022/09/03 03:07:07;;;;;;;1.85;1.50;;;;;;;15.55;78.58;101459.19;4989603;28;20175;-76
2022/09/03 03:09:36;;;;;;;2.75;1.45;;;;;;;15.51;78.52;101470.72;5014847;28;20045;-75
2022/09/03 03:12:04;;;;;;;4.18;1.20;;;;;;;15.50;79.03;101466.31;5009998;28;20041;-75
2022/09/03 03:14:33;;;;;;;2.05;1.45;;;;;;;15.46;79.19;101467.22;5004092;28;20049;-75
2022/09/03 03:17:01;;;;;;;1.40;1.05;;;;;;;15.44;79.37;101463.69;5001160;28;20450;-75
2022/09/03 03:19:29;;;;;;;2.53;1.80;;;;;;;15.42;79.24;101465.47;4983614;28;20037;-75
2022/09/03 03:21:58;;;;;;;2.17;1.20;;;;;;;15.41;79.63;101474.34;4986253;28;20050;-75
2022/09/03 03:24:26;;;;;;;1.25;1.25;;;;;;;15.41;79.42;101469.03;5014123;28;20057;-75
2022/09/03 03:26:59;;;;;;;3.05;1.30;;;;;;;15.39;79.89;101470.81;5010064;28;20033;-75
2022/09/03 03:29:28;;;;;;;1.50;1.25;;;;;;;15.36;79.69;101473.50;5017172;28;20395;-75
2022/09/03 03:31:57;;;;;;;5.88;1.33;;;;;;;15.33;80.79;101477.06;4986736;28;20044;-75
2022/09/03 03:34:25;;;;;;;1.48;1.38;;;;;;;15.33;80.25;101474.41;4994656;28;20053;-75
2022/09/03 03:36:54;;;;;;;1.83;1.50;;;;;;;15.28;80.18;101476.19;4954422;28;20056;-74
2022/09/03 03:39:22;;;;;;;1.45;1.10;;;;;;;15.26;79.81;101471.78;5015741;28;20330;-74
2022/09/03 03:41:51;;;;;;;5.45;1.17;;;;;;;15.24;80.29;101484.19;5021720;28;20376;-75
2022/09/03 03:44:19;;;;;;;1.58;1.48;;;;;;;15.21;80.33;101488.59;4971550;28;20136;-74
2022/09/03 03:46:48;;;;;;;4.22;1.85;;;;;;;15.20;80.76;101475.38;5019554;28;20053;-75
2022/09/03 03:49:16;;;;;;;3.80;1.50;;;;;;;15.18;81.03;101487.78;4996879;28;20139;-75
2022/09/03 03:51:44;;;;;;;1.40;1.30;;;;;;;15.16;81.17;101486.88;4961593;28;20037;-75
2022/09/03 03:54:13;;;;;;;1.40;1.27;;;;;;;15.16;81.33;101486.88;5011485;28;20057;-75
2022/09/03 03:56:44;;;;;;;11.57;1.60;;;;;;;15.15;81.34;101475.38;5023534;28;20450;-75
2022/09/03 03:59:22;;;;;;;5.18;1.35;;;;;;;15.17;81.97;101480.69;4981290;28;20041;-74
2022/09/03 04:01:53;;;;;;;3.30;1.50;;;;;;;15.17;81.85;101472.72;5004317;28;20050;-74
2022/09/03 04:04:22;;;;;;;3.10;2.13;;;;;;;15.16;82.31;101479.81;5005600;28;20176;-76
2022/09/03 04:06:50;;;;;;;3.00;1.30;;;;;;;15.15;82.41;101475.38;4965413;28;20041;-75
2022/09/03 04:09:18;;;;;;;2.42;1.30;;;;;;;15.15;82.68;101480.69;5002576;28;20049;-74
2022/09/03 04:11:47;;;;;;;1.50;1.40;;;;;;;15.14;82.19;101478.94;5028726;28;20045;-75
2022/09/03 04:14:16;;;;;;;1.73;1.48;;;;;;;15.14;82.97;101483.34;5014881;28;20054;-75
2022/09/03 04:16:45;;;;;;;2.47;1.85;;;;;;;15.12;82.21;101474.50;5023980;28;20041;-75
2022/09/03 04:19:14;;;;;;;1.52;1.40;;;;;;;15.11;82.82;101478.94;5014299;28;20060;-75
2022/09/03 04:21:43;;;;;;;1.40;1.33;;;;;;;15.09;83.04;101470.13;4947386;28;20390;-74
2022/09/03 04:24:11;;;;;;;2.25;1.50;;;;;;;15.08;83.29;101478.94;4989658;28;20064;-74
2022/09/03 04:26:40;;;;;;;1.42;1.25;;;;;;;15.06;83.15;101472.78;5002788;28;20398;-76
2022/09/03 04:29:09;;;;;;;1.48;1.38;;;;;;;15.06;82.90;101474.56;5028517;28;20049;-76
2022/09/03 04:31:38;;;;;;;3.80;1.27;;;;;;;15.03;83.25;101480.78;5010719;28;20422;-74
2022/09/03 04:34:08;;;;;;;1.50;1.40;;;;;;;15.01;83.83;101469.28;5032315;28;20060;-75
2022/09/03 04:36:36;;;;;;;1.35;1.33;;;;;;;14.99;83.35;101473.72;4989458;28;20144;-75
2022/09/03 04:39:04;;;;;;;2.75;1.30;;;;;;;14.98;83.43;101463.97;4931397;28;20029;-75
2022/09/03 04:41:33;;;;;;;2.15;1.20;;;;;;;14.97;83.39;101475.47;5023848;28;20037;-75
2022/09/03 04:44:01;;;;;;;2.83;1.60;;;;;;;14.95;83.80;101464.88;5019108;28;20048;-74
2022/09/03 04:46:31;;;;;;;4.10;1.60;;;;;;;14.96;83.41;101460.47;5024418;28;20056;-76
2022/09/03 04:49:01;;;;;;;1.60;1.50;;;;;;;14.94;83.91;101467.53;5036397;28;20049;-74
2022/09/03 04:51:30;;;;;;;2.53;1.42;;;;;;;14.93;83.55;101461.38;4988840;28;20067;-74
2022/09/03 04:54:00;;;;;;;1.52;1.33;;;;;;;14.93;83.59;101457.81;4993359;28;20037;-75
2022/09/03 04:56:34;;;;;;;1.45;1.35;;;;;;;14.91;83.77;101454.28;5006754;28;20057;-74
2022/09/03 04:59:06;;;;;;;3.92;1.20;;;;;;;14.92;83.84;101464.03;5026332;28;20042;-74
2022/09/03 05:01:37;;;;;;;6.05;1.90;;;;;;;14.92;84.09;101461.38;5023440;28;20041;-75
2022/09/03 05:04:07;;;;;;;2.10;1.13;;;;;;;14.90;84.05;101452.53;5029660;28;20084;-74
2022/09/03 05:06:36;;;;;;;1.73;1.30;;;;;;;14.90;83.66;101466.69;4980616;28;20073;-75
2022/09/03 05:09:05;;;;;;;4.70;1.50;;;;;;;14.88;84.53;101460.50;5008616;28;20049;-74
2022/09/03 05:11:33;;;;;;;1.63;1.50;;;;;;;14.88;84.33;101470.25;4965896;28;20158;-74
2022/09/03 05:14:04;;;;;;;5.00;1.50;;;;;;;14.87;83.93;101460.50;5017622;28;20395;-75
2022/09/03 05:16:32;;;;;;;3.13;1.30;;;;;;;14.85;84.32;101467.59;5023626;28;20041;-74
2022/09/03 05:19:02;;;;;;;1.80;1.42;;;;;;;14.85;84.17;101476.41;5024812;28;20525;-74
2022/09/03 05:21:31;;;;;;;3.20;1.60;;;;;;;14.84;84.27;101476.41;5015031;28;20419;-75
2022/09/03 05:24:00;;;;;;;2.97;1.40;;;;;;;14.85;84.43;101464.94;5014440;28;20060;-75
2022/09/03 05:26:31;;;;;;;2.15;1.60;;;;;;;14.85;84.38;101483.50;4983907;28;20155;-74
2022/09/03 05:29:06;;;;;;;4.18;1.50;;;;;;;14.85;84.84;101479.06;5006475;28;20080;-75
2022/09/03 05:31:38;;;;;;;2.25;1.45;;;;;;;14.87;84.18;101473.75;5013047;28;20259;-75
2022/09/03 05:34:08;;;;;;;1.60;1.40;;;;;;;14.88;84.72;101468.47;5009164;28;20112;-74
2022/09/03 05:36:44;;;;;;;1.95;1.30;;;;;;;14.90;84.28;101465.81;5013822;28;20045;-74
2022/09/03 05:39:12;;;;;;;3.78;2.30;;;;;;;14.90;84.70;101468.47;5006289;28;20053;-75
2022/09/03 05:41:41;;;;;;;4.60;2.65;;;;;;;14.91;84.16;101462.25;4979646;28;20406;-74
2022/09/03 05:44:09;;;;;;;5.82;4.68;;;;;;;14.91;84.52;101452.50;5022310;28;20045;-75
2022/09/03 05:46:38;;;;;;;1.88;1.27;;;;;;;14.93;84.72;101461.38;5012186;28;20046;-74
2022/09/03 05:49:06;;;;;;;4.85;1.60;;;;;;;14.94;84.33;101456.94;5013672;28;20046;-75
2022/09/03 05:51:38;;;;;;;1.67;1.58;;;;;;;14.97;84.17;101448.94;5015550;28;20037;-74
2022/09/03 05:54:07;;;;;;;5.50;1.30;;;;;;;14.99;85.03;101457.81;5026742;28;20053;-74
2022/09/03 05:56:41;;;;;;;1.60;1.50;;;;;;;15.00;84.25;101449.81;5001977;28;20037;-74
2022/09/03 05:59:10;;;;;;;1.73;1.38;;;;;;;15.02;84.84;101448.03;5017193;28;20392;-75
2022/09/03 06:01:45;;;;;;;1.65;1.45;;;;;;;15.07;84.63;101455.09;4973224;28;20037;-75
2022/09/03 06:04:20;;;;;;;1.40;1.30;;;;;;;15.11;85.03;101455.06;5008456;28;20057;-75
2022/09/03 06:06:49;;;;;;;1.92;1.42;;;;;;;15.12;84.69;101445.31;4998500;28;20037;-75
2022/09/03 06:09:20;;;;;;;3.65;3.30;;;;;;;15.15;84.76;101447.97;4992847;28;20391;-75
2022/09/03 06:11:52;;;;;;;2.38;1.83;;;;;;;15.17;84.74;101456.78;4964847;28;20046;-75
2022/09/03 06:14:22;;;;;;;3.67;1.33;;;;;;;15.20;84.85;101467.41;5027906;28;20057;-75
2022/09/03 06:16:51;;;;;;;2.83;1.27;;;;;;;15.21;84.66;101459.41;5009668;28;20068;-75
2022/09/03 06:19:20;;;;;;;4.50;1.58;;;;;;;15.24;84.22;101455.00;5010789;28;20042;-76
2022/09/03 06:21:48;;;;;;;2.75;1.63;;;;;;;15.25;84.62;101451.44;5000106;28;20034;-75
2022/09/03 06:24:22;;;;;;;3.92;1.50;;;;;;;15.29;84.51;101450.50;5009232;28;20534;-75
2022/09/03 06:26:53;;;;;;;1.65;1.50;;;;;;;15.34;84.48;101454.03;4994678;28;20410;-74
2022/09/03 06:29:22;;;;;;;3.08;1.50;;;;;;;15.42;84.54;101456.63;5031553;28;20037;-75
2022/09/03 06:31:50;;;;;;;4.82;1.90;;;;;;;15.44;84.64;101455.72;5022004;28;20068;-75
2022/09/03 06:34:21;;;;;;;1.35;1.20;;;;;;;15.47;84.23;101455.72;5036143;28;20060;-75
2022/09/03 06:36:50;;;;;;;4.05;2.20;;;;;;;15.53;84.02;101454.78;5012040;28;20037;-75
2022/09/03 06:39:21;;;;;;;2.20;1.58;;;;;;;15.65;83.92;101453.78;5029062;28;20423;-75
2022/09/03 06:41:50;;;;;;;1.73;1.50;;;;;;;15.78;83.89;101455.47;5011931;28;20041;-75
2022/09/03 06:44:26;;;;;;;1.83;1.40;;;;;;;15.89;82.67;101447.44;4948462;28;20046;-75
2022/09/03 06:46:54;;;;;;;3.42;1.27;;;;;;;16.05;82.62;101448.16;5009529;28;20490;-75
2022/09/03 06:49:25;;;;;;;2.40;1.58;;;;;;;16.26;82.61;101450.59;5019513;28;20044;-75
2022/09/03 06:51:53;;;;;;;9.38;2.05;;;;;;;16.41;81.76;101451.31;5002295;28;20056;-75
2022/09/03 06:54:24;;;;;;;3.42;1.30;;;;;;;16.60;81.36;101455.53;5025445;28;20049;-75
2022/09/03 06:56:52;;;;;;;2.92;1.38;;;;;;;16.76;80.23;101443.78;5023384;28;20057;-75
2022/09/03 06:59:20;;;;;;;2.20;1.30;;;;;;;16.84;80.83;101443.75;4986441;28;20049;-75
2022/09/03 07:01:48;;;;;;;3.15;1.50;;;;;;;16.94;79.85;101444.50;4996934;28;20046;-75
2022/09/03 07:04:17;;;;;;;1.48;1.25;;;;;;;17.02;79.46;101460.34;5005694;28;20061;-74
2022/09/03 07:06:47;;;;;;;1.45;1.35;;;;;;;17.13;79.14;101459.31;5024393;28;20045;-75
2022/09/03 07:09:17;;;;;;;3.80;1.50;;;;;;;17.24;79.07;101456.50;4983517;28;20168;-75
2022/09/03 07:11:46;;;;;;;2.40;1.60;;;;;;;17.35;78.10;101461.63;5022955;28;20037;-76
2022/09/03 07:14:20;;;;;;;2.90;2.10;;;;;;;17.37;77.98;101459.81;4976700;28;21078;-74
2022/09/03 07:16:49;;;;;;;2.33;1.42;;;;;;;17.42;78.65;101454.44;4997987;28;20034;-75
2022/09/03 07:19:17;;;;;;;3.05;1.17;;;;;;;17.47;77.63;101450.81;5009095;28;20530;-76
2022/09/03 07:21:46;;;;;;;2.55;1.20;;;;;;;17.50;77.36;101456.09;5008019;28;20077;-75
2022/09/03 07:24:20;;;;;;;1.52;1.42;;;;;;;17.52;77.36;101461.38;5008437;28;20064;-76
2022/09/03 07:26:49;;;;;;;3.53;1.35;;;;;;;17.59;76.41;101456.84;5014562;28;20050;-76
2022/09/03 07:29:18;;;;;;;1.25;1.15;;;;;;;17.56;75.54;101460.44;5014791;28;20052;-76
2022/09/03 07:31:50;;;;;;;2.47;1.25;;;;;;;17.56;74.17;101463.13;4970324;28;20545;-76
2022/09/03 07:34:22;;;;;;;2.78;1.30;;;;;;;17.48;74.54;101457.88;5008365;28;20399;-75
2022/09/03 07:36:52;;;;;;;1.67;1.10;;;;;;;17.47;74.26;101461.47;4983500;28;20053;-76
2022/09/03 07:39:21;;;;;;;2.67;1.30;;;;;;;17.40;74.97;101454.47;4994002;28;20059;-75
2022/09/03 07:41:50;;;;;;;1.38;1.10;;;;;;;17.46;74.79;101448.16;5005605;28;20692;-75
2022/09/03 07:44:19;;;;;;;2.50;1.15;;;;;;;17.49;74.79;101456.97;5005839;28;20053;-75
2022/09/03 07:46:49;;;;;;;1.52;1.23;;;;;;;17.49;75.06;101450.78;4965609;28;20267;-76
2022/09/03 07:49:20;;;;;;;1.95;1.33;;;;;;;17.48;75.00;101465.00;4993340;28;20429;-77
2022/09/03 07:51:51;;;;;;;2.97;1.70;;;;;;;17.51;74.77;101444.50;5012962;28;20429;-76
2022/09/03 07:54:20;;;;;;;1.67;1.20;;;;;;;17.57;74.50;101453.31;5013550;28;20054;-76
2022/09/03 07:56:49;;;;;;;4.30;1.07;;;;;;;17.68;74.71;101454.03;5011192;28;20033;-75
2022/09/03 07:59:19;;;;;;;2.53;1.30;;;;;;;17.83;74.62;101451.09;4985642;28;20034;-75
2022/09/03 08:01:47;;;;;;;1.30;1.20;;;;;;;17.90;73.50;101459.88;4979110;28;20046;-75
2022/09/03 08:04:15;;;;;;;1.75;1.30;;;;;;;17.91;72.74;101454.53;5021778;28;20050;-76
2022/09/03 08:06:44;;;;;;;2.53;1.10;;;;;;;17.97;73.15;101447.34;5022155;28;20398;-76
2022/09/03 08:09:12;;;;;;;1.42;1.27;;;;;;;18.12;72.72;101447.06;4977659;28;20045;-74
2022/09/03 08:11:42;;;;;;;2.00;1.30;;;;;;;18.31;72.76;101458.25;5012986;28;20510;-75
2022/09/03 08:14:13;;;;;;;1.20;1.10;;;;;;;18.41;72.54;101450.94;5006351;28;20526;-75
2022/09/03 08:16:46;;;;;;;2.97;1.90;;;;;;;18.55;72.28;101461.38;4956254;28;20368;-75
2022/09/03 08:19:18;;;;;;;2.00;1.67;;;;;;;18.69;72.33;101461.94;5000043;28;20045;-75
2022/09/03 08:21:50;;;;;;;3.63;1.30;;;;;;;18.83;72.35;101459.03;4989630;28;20406;-74
2022/09/03 08:24:20;;;;;;;1.63;1.30;;;;;;;19.12;71.79;101458.38;4991262;28;20049;-76
2022/09/03 08:26:49;;;;;;;1.60;1.00;;;;;;;19.34;70.46;101457.88;4997626;28;20054;-75
2022/09/03 08:29:20;;;;;;;4.55;1.20;;;;;;;19.52;70.33;101456.56;4993340;28;20058;-75
2022/09/03 08:31:49;;;;;;;3.20;1.20;;;;;;;19.78;69.66;101448.81;5003264;28;20049;-75
2022/09/03 08:34:19;;;;;;;2.88;1.10;;;;;;;19.90;67.63;101452.09;4958097;28;20029;-75
2022/09/03 08:36:47;;;;;;;2.83;1.27;;;;;;;19.96;67.59;101452.81;5002980;28;20642;-75
2022/09/03 08:39:16;;;;;;;3.88;1.40;;;;;;;20.03;66.70;101448.16;5036826;28;20506;-76
2022/09/03 08:42:07;;;;;;;5.78;3.25;;;;;;;20.03;64.09;101442.81;5005683;28;20179;-76
2022/09/03 08:44:49;;;;;;;3.47;1.55;;;;;;;20.10;64.85;101443.53;4994065;28;20081;-75
2022/09/03 08:47:40;;;;;;;1.33;1.08;;;;;;;20.21;65.42;101438.78;5023257;28;20045;-76
2022/09/03 08:50:10;;;;;;;;;;;;;;;20.43;62.75;101453.31;4972754;28;20495;-76
2022/09/03 08:52:49;;;;;;;2.60;1.25;;;;;;;20.52;63.31;101444.13;5012047;28;19929;-76
2022/09/03 08:55:35;;;;;;;1.67;1.17;;;;;;;20.64;63.08;101441.13;5019176;28;20053;-75
2022/09/03 08:58:03;;;;;;;1.20;1.10;;;;;;;20.77;62.01;101451.47;5005720;28;20049;-76
2022/09/03 09:01:00;;;;;;;2.92;1.15;;;;;;;20.73;60.93;101449.81;4991149;28;21250;-76
2022/09/03 09:03:47;;;;;;;2.17;1.10;;;;;;;20.59;60.78;101443.03;4998633;28;20267;-74
2022/09/03 09:06:22;;;;;;;1.98;1.85;;;;;;;20.49;60.63;101449.59;4972619;28;20064;-76
2022/09/03 09:09:12;;;;;;;1.30;0.90;;;;;;;20.41;61.85;101444.44;5012174;28;20041;-76
2022/09/03 09:11:59;;;;;;;12.27;1.38;;;;;;;20.35;62.60;101443.75;5015148;28;20033;-75
2022/09/03 09:14:38;;;;;;;1.20;1.10;;;;;;;20.38;63.12;101436.50;4994560;28;20430;-75
2022/09/03 09:17:35;;;;;;;1.45;1.35;;;;;;;20.33;63.33;101446.44;5017815;28;20499;-76
2022/09/03 09:20:28;;;;;;;1.33;1.00;;;;;;;20.30;62.92;101438.50;4992591;28;20041;-77
2022/09/03 09:22:59;;;;;;;3.15;1.33;;;;;;;20.31;63.23;101436.72;4996293;28;20045;-75
2022/09/03 09:25:30;;;;;;;1.35;1.08;;;;;;;20.42;63.59;101439.97;4995346;28;20616;-76
2022/09/03 09:28:26;;;;;;;2.20;1.08;;;;;;;20.56;63.39;101450.28;4977964;28;20404;-75
2022/09/03 09:31:00;;;;;;;3.17;1.55;;;;;;;20.73;63.13;101436.44;5011377;28;20041;-76
2022/09/03 09:33:33;;;;;;;3.65;1.13;;;;;;;20.79;62.41;101433.56;4969921;28;20544;-75
2022/09/03 09:36:07;;;;;;;1.58;1.08;;;;;;;20.91;62.34;101437.69;4990121;28;20402;-75
2022/09/03 09:38:37;;;;;;;2.25;0.90;;;;;;;21.01;61.81;101449.88;5022367;28;20290;-75
2022/09/03 09:41:14;;;;;;;3.17;0.90;;;;;;;20.99;60.48;101438.31;5018488;28;20487;-76
2022/09/03 09:43:43;;;;;;;1.58;1.13;;;;;;;21.00;61.32;101442.72;5014028;28;20513;-75
2022/09/03 09:46:15;;;;;;;4.40;1.38;;;;;;;21.06;61.33;101441.66;4990891;28;20506;-75
2022/09/03 09:48:50;;;;;;;1.42;1.00;;;;;;;21.16;61.16;101443.16;5021783;28;20498;-76
2022/09/03 09:51:30;;;;;;;2.20;0.90;;;;;;;21.25;60.83;101439.28;4971431;28;25219;-75
2022/09/03 09:54:12;;;;;;;3.75;0.80;;;;;;;21.32;60.70;101439.06;5005906;28;20037;-76
2022/09/03 09:56:43;;;;;;;1.88;1.10;;;;;;;21.42;59.47;101436.97;5007335;28;20046;-76
2022/09/03 09:59:14;;;;;;;4.70;1.35;;;;;;;21.31;58.48;101439.09;4997454;28;20061;-75
2022/09/03 10:01:45;;;;;;;4.97;1.10;;;;;;;21.24;58.64;101438.41;5000441;28;20116;-75
2022/09/03 10:04:23;;;;;;;5.57;1.00;;;;;;;21.29;58.69;101439.16;5010522;28;20049;-76
2022/09/03 10:06:57;;;;;;;5.45;0.93;;;;;;;21.35;58.10;101436.28;4972347;28;20041;-75
2022/09/03 10:09:28;;;;;;;2.35;1.17;;;;;;;21.41;56.18;101433.38;5004630;28;20053;-75
2022/09/03 10:12:18;;;;;;;3.42;0.90;;;;;;;21.45;57.74;101430.66;5003713;28;20037;-75
2022/09/03 10:15:22;;;;;;;6.43;1.20;;;;;;;21.57;58.11;101436.47;5002455;28;20057;-75
2022/09/03 10:18:27;;;;;;;2.28;1.13;;;;;;;21.69;56.53;101429.81;4964869;28;20042;-76
2022/09/03 10:21:31;;;;;;;2.92;0.98;;;;;;;21.75;55.11;101426.06;5014765;28;20395;-74
2022/09/03 10:24:29;;;;;;;1.70;1.00;;;;;;;21.82;55.38;101434.78;4975358;28;20046;-74
2022/09/03 10:26:58;;;;;;;2.30;1.17;;;;;;;21.78;56.13;101432.19;5026341;28;20510;-75
2022/09/03 10:29:28;;;;;;;4.30;1.02;;;;;;;21.87;56.06;101424.75;5001062;28;20242;-75
2022/09/03 10:32:03;;;;;;;2.92;1.00;;;;;;;21.97;54.98;101427.06;5010191;28;20402;-75
2022/09/03 10:34:57;;;;;;;2.95;1.02;;;;;;;22.07;53.39;101416.00;5008498;28;20357;-75
2022/09/03 10:37:39;;;;;;;1.73;0.82;;;;;;;22.18;52.87;101422.72;5011985;28;20567;-76
2022/09/03 10:40:11;;;;;;;2.03;0.90;;;;;;;22.24;53.70;101418.09;4985989;28;20038;-76
2022/09/03 10:42:47;;;;;;;2.15;0.70;;;;;;;22.30;54.10;101418.75;5022552;28;20418;-76
2022/09/03 10:45:38;;;;;;;5.47;0.85;;;;;;;22.40;51.77;101411.25;5004406;28;20046;-76
2022/09/03 10:48:37;;;;;;;7.57;1.20;;;;;;;22.44;50.79;101406.63;5019284;28;20046;-75
2022/09/03 10:51:26;;;;;;;2.28;0.95;;;;;;;22.49;51.53;101405.50;4991926;28;20257;-76
2022/09/03 10:54:15;;;;;;;2.83;1.00;;;;;;;22.61;48.03;101420.31;4978872;28;20046;-75
2022/09/03 10:57:17;;;;;;;3.95;1.05;;;;;;;22.67;49.61;101406.63;5011878;28;20046;-76
2022/09/03 11:00:11;;;;;;;6.60;1.33;;;;;;;22.77;47.86;101408.00;4995991;28;20391;-76
2022/09/03 11:03:01;;;;;;;1.77;1.23;;;;;;;22.85;48.23;101407.72;5000912;28;20046;-77
2022/09/03 11:05:48;;;;;;;5.28;0.90;;;;;;;22.92;48.76;101409.22;5016575;28;20495;-75
2022/09/03 11:08:27;;;;;;;1.20;1.05;;;;;;;23.03;48.39;101418.69;5023944;28;20424;-76
2022/09/03 11:11:06;;;;;;;1.10;1.00;;;;;;;23.07;49.22;101409.59;4963658;28;20044;-76
2022/09/03 11:13:45;;;;;;;2.92;1.00;;;;;;;23.20;48.39;101400.09;5012994;28;20396;-76
2022/09/03 11:16:19;;;;;;;3.78;0.80;;;;;;;23.28;48.28;101400.66;5011583;28;20700;-75
2022/09/03 11:18:50;;;;;;;2.15;1.08;;;;;;;23.35;48.12;101394.09;5005465;28;20038;-76
2022/09/03 11:21:24;;;;;;;3.70;0.88;;;;;;;23.51;47.60;101398.81;4993826;28;20450;-76
2022/09/03 11:24:13;;;;;;;1.17;0.93;;;;;;;23.56;48.19;101396.81;5005685;28;20402;-76
2022/09/03 11:26:50;;;;;;;3.42;0.77;;;;;;;23.59;47.65;101388.63;4984705;28;20085;-77
2022/09/03 11:29:45;;;;;;;3.72;0.77;;;;;;;23.62;44.99;101404.63;5021815;28;20369;-77
2022/09/03 11:32:20;;;;;;;2.55;1.10;;;;;;;23.53;46.03;101392.44;4998944;28;20049;-76
2022/09/03 11:34:53;;;;;;;1.75;0.73;;;;;;;23.55;45.28;101386.97;4994853;28;20037;-76
2022/09/03 11:37:29;;;;;;;1.50;0.80;;;;;;;23.59;46.02;101401.19;4985098;28;20038;-75
2022/09/03 11:40:09;;;;;;;1.25;0.85;;;;;;;23.63;45.15;101387.56;4963209;28;20044;-75
2022/09/03 11:42:43;;;;;;;0.88;0.88;;;;;;;23.74;45.88;101387.06;4984888;28;20049;-76
2022/09/03 11:45:33;;;;;;;5.22;1.02;;;;;;;23.81;45.87;101385.03;4986891;28;20373;-75
2022/09/03 11:48:15;;;;;;;3.05;0.90;;;;;;;23.80;44.44;101376.09;4994306;28;20053;-75
2022/09/03 11:50:52;;;;;;;1.90;0.90;;;;;;;23.74;42.79;101387.97;4972201;28;20049;-77
2022/09/03 11:53:32;;;;;;;3.20;0.82;;;;;;;23.74;43.55;101382.59;4986597;28;20046;-76
2022/09/03 11:56:11;;;;;;;2.60;0.97;;;;;;;23.79;44.51;101381.53;4973169;28;20060;-75
2022/09/03 11:58:41;;;;;;;2.33;2.00;;;;;;;23.90;44.42;101384.63;5004895;28;20050;-76
2022/09/03 12:01:16;;;;;;;1.45;0.85;;;;;;;23.98;43.82;101378.91;4980949;28;20051;-75